Date,TemperatureHighF,TemperatureAvgF,TemperatureLowF,DewpointHighF,DewpointAvgF,DewpointLowF,HumidityHigh,HumidityAvg,HumidityLow,PressureMaxIn,PressureMinIn,WindSpeedMaxMPH,WindSpeedAvgMPH,GustSpeedMaxMPH,PrecipitationSumIn
2013-1-1,50,46,42,42,34,21,81,65,41,30.08,29.90,7,1,13,0.02
2013-1-2,43,40,36,38,30,23,85,69,55,30.20,29.96,6,1,7,0.00
2013-1-3,44,38,33,28,24,21,67,60,41,30.24,30.15,6,0,7,0.00
2013-1-4,42,36,31,24,22,20,65,57,48,30.32,30.20,8,2,10,0.00
2013-1-5,48,40,33,31,25,21,68,55,42,30.40,30.21,11,1,14,0.00
2013-1-6,48,43,37,34,31,29,73,63,55,30.21,30.06,8,1,9,0.00
2013-1-7,47,40,32,30,26,23,70,59,49,30.46,30.17,13,1,15,0.00
2013-1-8,52,37,26,37,28,20,79,70,56,30.46,30.35,13,0,26,0.00
2013-1-9,58,45,32,49,38,26,83,76,64,30.44,30.35,8,1,10,0.00
2013-1-10,57,49,42,42,36,32,74,61,46,30.57,30.43,21,1,21,0.00
2013-1-11,46,44,43,40,37,33,89,79,66,30.44,30.15,3,0,4,0.06
2013-1-12,68,53,43,60,49,40,91,86,76,30.18,30.09,31,1,34,0.00
2013-1-13,68,60,53,62,55,50,94,86,74,30.11,29.99,28,1,34,0.00
2013-1-14,65,57,50,58,53,48,93,88,77,30.24,30.02,25,1,28,0.55
2013-1-15,50,44,40,48,42,38,93,93,92,30.27,30.10,7,0,7,1.81
2013-1-16,48,43,40,46,41,38,94,93,92,30.11,29.93,6,0,12,0.41
2013-1-17,47,40,34,45,38,32,93,91,88,30.17,29.99,6,0,8,0.53
2013-1-18,36,33,30,32,29,26,92,84,74,30.51,30.17,22,1,24,0.57
2013-1-19,44,33,26,37,29,22,88,84,72,30.46,30.09,27,4,28,0.04
2013-1-20,49,42,33,35,31,27,87,67,49,30.09,29.99,14,2,14,0.00
2013-1-21,49,40,32,30,22,9,74,52,34,30.09,29.86,13,2,22,0.00
2013-1-22,32,25,20,10,2,0,43,38,34,30.27,29.99,9,3,11,0.00
2013-1-23,34,27,20,18,8,2,58,45,31,30.33,30.02,8,1,9,0.00
2013-1-24,36,28,22,23,10,4,62,47,36,30.53,29.97,13,4,17,0.00
2013-1-25,25,24,21,19,14,7,78,65,51,30.50,30.04,8,0,8,0.00
2013-1-26,40,32,23,28,23,17,82,70,59,30.43,30.04,8,1,9,0.08
2013-1-27,37,30,23,28,22,17,78,72,67,30.59,30.43,7,0,7,0.00
2013-1-28,54,41,33,48,36,25,89,81,71,30.45,30.16,16,0,20,0.08
2013-1-29,70,58,50,55,50,45,86,74,57,30.18,29.99,29,1,29,0.00
2013-1-30,68,61,51,62,56,47,93,86,79,30.00,29.35,18,3,35,2.55
2013-1-31,51,39,35,47,27,20,88,62,50,29.94,29.39,15,4,16,0.00
2013-2-1,40,28,22,30,12,5,75,53,41,30.38,29.78,12,4,14,0.00
2013-2-2,35,27,20,27,18,9,82,67,53,30.37,30.00,6,0,6,0.00
2013-2-3,40,35,32,29,25,19,83,67,55,30.00,29.84,12,3,14,0.00
2013-2-4,39,32,27,25,20,15,73,61,55,30.13,29.93,13,2,14,0.00
2013-2-5,50,40,31,38,31,23,78,71,58,29.97,29.88,8,0,10,0.00
2013-2-6,53,44,36,34,30,26,81,59,43,30.31,29.94,12,1,25,0.00
2013-2-7,40,38,34,32,30,25,82,73,65,30.38,30.12,3,0,4,0.00
2013-2-8,49,38,34,40,32,26,88,78,62,30.12,29.83,12,2,13,0.43
2013-2-9,48,38,33,26,20,18,63,49,31,30.36,30.08,11,3,19,0.00
2013-2-10,48,38,28,33,25,19,75,60,45,30.48,30.20,8,1,12,0.04
2013-2-11,60,48,39,50,39,27,89,72,37,30.20,29.86,12,2,14,0.04
2013-2-12,57,49,42,29,26,22,51,41,31,30.07,29.92,18,4,18,0.00
2013-2-13,47,44,40,41,35,28,87,70,48,29.94,29.62,7,1,8,0.10
2013-2-14,52,42,36,32,28,25,71,58,39,30.05,29.84,22,2,29,0.00
2013-2-15,59,42,32,38,31,25,79,66,41,30.09,29.91,12,1,18,0.02
2013-2-16,40,36,29,29,22,14,66,57,45,30.02,29.86,16,2,26,0.00
2013-2-17,31,26,21,18,8,3,69,46,36,30.24,29.92,10,4,13,0.00
2013-2-18,52,36,21,27,18,9,63,49,37,30.36,30.14,23,1,25,0.00
2013-2-19,52,43,37,41,28,16,82,58,32,30.15,29.79,15,2,15,0.02
2013-2-20,44,37,31,18,13,11,44,38,29,30.17,29.95,12,4,16,0.00
2013-2-21,50,39,29,23,17,13,52,42,31,30.28,30.12,16,1,18,0.00
2013-2-22,41,36,33,30,26,20,76,67,43,30.33,30.15,5,0,8,0.04
2013-2-23,52,42,36,43,35,29,83,78,71,30.16,29.82,17,0,17,0.00
2013-2-24,54,46,41,37,29,22,85,55,32,30.08,29.81,10,2,19,0.00
2013-2-25,44,37,32,28,24,21,67,58,48,30.22,30.08,5,0,5,0.00
2013-2-26,40,36,33,38,30,22,91,79,64,30.18,29.63,4,0,4,1.30
2013-2-27,48,44,40,39,36,33,92,74,61,29.77,29.59,10,1,10,0.00
2013-2-28,42,39,38,34,28,26,73,65,56,29.85,29.70,8,2,10,0.00
2013-3-1,41,39,37,28,26,24,66,61,55,29.92,29.81,8,1,10,0.00
2013-3-2,37,35,32,24,22,18,62,58,53,29.94,29.86,10,2,10,0.00
2013-3-3,35,31,29,20,17,13,61,56,51,30.00,29.90,10,3,10,0.00
2013-3-4,48,36,27,18,15,12,57,44,24,30.11,29.99,11,3,13,0.00
2013-3-5,50,40,35,34,27,18,84,61,49,30.08,29.65,3,0,3,0.53
2013-3-6,41,36,33,31,29,26,88,75,66,30.10,29.61,11,4,17,0.31
2013-3-7,43,39,37,29,28,25,71,64,56,30.27,30.09,12,3,15,0.00
2013-3-8,50,42,38,28,26,23,62,53,41,30.35,30.21,12,3,17,0.00
2013-3-9,59,44,31,37,29,23,74,57,39,30.39,30.25,27,1,31,0.00
2013-3-10,64,48,34,40,33,26,76,58,39,30.32,30.18,28,1,28,0.00
2013-3-11,56,51,43,50,37,29,84,61,48,30.20,29.88,19,0,19,0.00
2013-3-12,56,51,42,52,43,31,92,73,52,30.01,29.73,22,2,22,0.51
2013-3-13,45,40,33,32,27,17,71,58,44,30.17,29.98,13,2,13,0.00
2013-3-14,46,37,30,21,17,15,58,46,31,30.27,30.13,13,4,20,0.00
2013-3-15,63,48,33,38,28,18,55,47,39,30.17,29.86,13,2,27,0.00
2013-3-16,75,57,44,56,44,33,83,63,41,29.86,29.60,19,2,22,0.10
2013-3-17,56,46,38,49,41,35,89,84,76,30.20,29.85,6,0,6,0.67
2013-3-18,38,36,34,35,33,32,91,91,89,30.22,29.90,4,0,4,0.27
2013-3-19,58,45,35,39,27,8,93,57,18,30.04,29.80,13,3,19,0.00
2013-3-20,53,44,35,25,16,10,50,33,22,30.08,29.78,12,2,12,0.00
2013-3-21,42,33,28,26,15,11,56,48,38,30.00,29.79,11,4,15,0.00
2013-3-22,49,36,25,21,15,11,56,44,30,30.07,29.94,12,1,12,0.00
2013-3-23,55,42,32,30,23,18,61,48,34,30.06,29.91,16,1,16,0.00
2013-3-24,42,37,33,30,28,25,86,72,52,29.96,29.61,5,0,5,0.10
2013-3-25,42,36,33,32,29,25,88,76,57,29.78,29.54,11,2,12,0.49
2013-3-26,44,40,37,29,27,25,66,60,51,30.12,29.78,11,3,14,0.00
2013-3-27,43,39,36,27,26,24,68,59,49,30.24,30.12,8,3,10,0.00
2013-3-28,49,43,38,27,25,22,65,50,39,30.29,30.20,8,2,10,0.00
2013-3-29,58,45,33,31,26,23,70,50,29,30.33,30.16,18,1,20,0.00
2013-3-30,63,49,34,38,31,25,72,52,34,30.27,30.07,22,1,25,0.00
2013-3-31,59,50,45,52,42,32,88,73,51,30.08,29.78,20,0,27,0.23
2013-4-1,61,52,44,46,40,29,81,65,46,30.03,29.84,20,2,22,0.00
2013-4-2,54,44,36,29,22,17,65,44,25,30.18,30.03,12,2,26,0.00
2013-4-3,55,44,35,22,19,14,53,38,22,30.35,30.17,8,1,13,0.00
2013-4-4,44,38,35,30,23,17,83,57,35,30.40,30.03,12,0,12,0.18
2013-4-5,60,46,35,40,35,30,91,68,37,30.05,29.91,26,1,27,0.43
2013-4-6,64,50,37,41,35,30,76,56,42,30.27,30.05,22,1,34,0.00
2013-4-7,72,56,44,48,40,31,71,54,40,30.23,30.03,31,2,31,0.00
2013-4-8,80,64,50,54,48,41,75,57,36,30.14,29.98,22,1,22,0.00
2013-4-9,86,71,56,58,52,47,73,54,34,30.16,30.01,21,1,32,0.00
2013-4-10,90,76,64,60,55,50,69,51,26,30.07,29.88,20,1,20,0.00
2013-4-11,86,74,63,61,57,53,72,56,39,29.92,29.72,20,2,20,0.28
2013-4-12,74,67,60,64,55,38,93,69,38,29.80,29.64,22,3,22,1.04
2013-4-13,72,62,53,42,36,30,57,40,23,30.00,29.80,11,3,17,0.00
2013-4-14,79,65,50,48,40,33,62,41,28,30.09,29.98,27,2,27,0.00
2013-4-15,68,58,55,55,51,45,87,79,45,30.25,30.03,18,0,20,0.31
2013-4-16,78,65,57,65,58,53,90,78,61,30.30,30.15,22,1,33,0.00
2013-4-17,79,69,62,64,60,56,83,74,57,30.22,30.11,26,1,26,0.00
2013-4-18,78,69,62,65,60,56,87,72,53,30.15,29.96,22,2,30,0.00
2013-4-19,70,66,52,64,59,39,90,78,62,29.96,29.65,21,3,26,0.45
2013-4-20,61,52,44,39,32,28,62,48,31,30.31,29.87,12,3,22,0.00
2013-4-21,61,50,39,40,35,31,75,59,45,30.52,30.31,24,1,29,0.00
2013-4-22,63,51,40,39,34,32,74,55,34,30.50,30.29,30,1,30,0.00
2013-4-23,71,58,50,52,44,36,68,60,48,30.32,30.08,28,1,28,0.00
2013-4-24,77,63,49,58,51,42,83,67,45,30.11,29.88,27,1,31,0.00
2013-4-25,68,56,45,45,33,27,64,46,23,30.31,30.07,24,2,32,0.00
2013-4-26,70,56,42,42,37,30,67,50,36,30.46,30.30,34,1,34,0.00
2013-4-27,68,60,52,51,46,40,76,61,47,30.37,30.25,24,1,30,0.00
2013-4-28,58,56,53,54,51,50,90,86,76,30.25,30.05,13,0,13,0.33
2013-4-29,68,58,52,61,54,49,91,86,75,30.11,29.98,18,1,24,0.04
2013-4-30,69,62,58,60,56,54,89,82,70,30.23,30.04,20,1,30,0.00
2013-5-1,71,62,57,58,54,49,89,76,53,30.36,30.22,36,1,36,0.02
2013-5-2,71,62,56,55,49,44,69,63,55,30.36,30.25,29,1,32,0.00
2013-5-3,66,58,53,52,48,43,80,70,59,30.33,30.20,35,2,35,0.00
2013-5-4,65,56,49,50,46,42,76,69,58,30.25,30.12,18,1,34,0.00
2013-5-5,56,54,48,50,45,37,89,72,59,30.16,30.02,10,1,15,0.12
2013-5-6,56,54,52,55,52,50,95,93,89,30.06,29.89,11,0,11,1.39
2013-5-7,60,56,53,57,54,51,96,94,87,29.95,29.88,25,0,25,0.49
2013-5-8,58,54,52,56,52,50,95,93,91,30.02,29.94,15,0,15,0.41
2013-5-9,75,62,48,60,54,46,95,78,52,30.06,29.99,30,1,34,0.00
2013-5-10,79,66,56,66,58,52,90,78,54,30.07,29.91,21,0,21,0.20
2013-5-11,73,64,61,64,61,58,94,87,71,29.95,29.77,29,2,29,0.04
2013-5-12,63,58,50,58,43,34,88,59,38,30.06,29.83,22,1,22,0.02
2013-5-13,61,52,44,40,36,32,76,56,37,30.19,30.06,22,1,23,0.00
2013-5-14,67,55,40,47,40,34,79,60,39,30.24,30.01,31,1,31,0.00
2013-5-15,89,69,51,63,54,45,84,61,34,30.03,29.86,4,0,16,0.00
2013-5-16,82,75,67,61,58,53,69,56,45,30.00,29.89,30,1,30,0.00
2013-5-17,80,72,65,63,60,56,84,68,54,30.14,29.99,34,3,36,0.92
2013-5-18,67,65,64,64,62,61,93,90,85,30.18,30.09,33,4,36,0.14
2013-5-19,68,65,63,67,64,61,95,94,93,30.15,30.05,39,5,39,0.45
2013-5-20,74,69,65,70,67,64,96,94,85,30.12,30.01,23,2,28,0.47
2013-5-21,84,73,66,72,67,64,96,83,60,30.04,29.91,25,2,26,0.00
2013-5-22,84,72,65,73,66,60,91,82,63,29.98,29.88,34,4,34,0.18
2013-5-23,79,70,65,69,64,61,93,85,63,29.94,29.78,35,4,35,0.02
2013-5-24,66,60,53,62,47,37,86,65,44,30.20,29.83,22,3,23,0.00
2013-5-25,69,58,49,40,36,30,61,44,28,30.27,30.17,20,1,20,0.00
2013-5-26,73,62,52,46,42,39,72,50,30,30.26,30.15,24,0,24,0.00
2013-5-27,76,64,53,59,50,43,75,62,49,30.30,30.14,28,1,32,0.00
2013-5-28,84,71,59,66,60,53,83,67,48,30.22,30.09,12,1,13,0.00
2013-5-29,88,76,65,67,63,59,84,65,43,30.19,30.11,29,1,29,0.00
2013-5-30,88,76,64,71,63,57,81,66,51,30.25,30.14,25,2,25,0.00
2013-5-31,88,75,64,71,64,58,83,68,52,30.20,30.07,33,1,33,0.00
2013-6-1,87,76,66,72,65,60,83,68,50,30.09,29.97,38,2,38,0.00
2013-6-2,77,72,69,69,66,62,92,82,68,29.99,29.89,38,2,38,0.77
2013-6-3,78,71,67,68,65,60,93,82,64,29.99,29.86,35,3,35,0.02
2013-6-4,79,69,60,64,61,56,87,75,57,30.12,29.99,26,1,26,0.00
2013-6-5,73,68,63,65,62,57,86,79,73,30.16,30.04,29,2,30,0.00
2013-6-6,67,64,62,64,62,60,95,92,86,30.04,29.84,30,3,32,1.65
2013-6-7,72,68,64,70,66,62,96,94,92,29.85,29.64,24,2,27,0.20
2013-6-8,79,69,62,67,63,60,95,83,62,30.10,29.83,29,1,29,0.12
2013-6-9,84,74,67,72,67,63,90,81,64,30.16,30.04,27,3,27,0.45
2013-6-10,80,72,69,74,69,66,95,90,74,30.08,29.85,18,0,18,0.25
2013-6-11,80,72,65,67,65,63,94,80,61,29.95,29.88,32,3,32,0.14
2013-6-12,87,77,67,75,69,63,87,76,60,29.97,29.86,21,1,22,0.00
2013-6-13,90,76,67,73,68,57,90,77,55,29.86,29.61,25,4,30,0.12
2013-6-14,76,70,64,60,57,53,73,64,54,30.04,29.78,30,7,30,0.00
2013-6-15,81,70,60,63,59,54,84,68,48,30.14,30.02,29,1,29,0.00
2013-6-16,83,74,63,70,64,57,84,72,60,30.07,29.97,17,0,17,0.00
2013-6-17,83,75,69,75,68,65,90,80,69,30.03,29.91,16,0,18,0.12
2013-6-18,73,70,66,70,66,62,94,88,81,29.96,29.83,19,0,19,0.65
2013-6-19,78,69,62,69,64,59,93,86,72,30.15,29.92,28,1,31,0.08
2013-6-20,78,71,66,69,66,64,93,85,74,30.26,30.14,20,2,26,0.00
2013-6-21,83,73,64,70,65,60,87,76,61,30.28,30.19,30,1,32,0.00
2013-6-22,82,72,63,70,64,58,85,75,59,30.27,30.12,21,1,32,0.00
2013-6-23,88,78,69,73,68,65,88,73,53,30.21,30.09,17,0,17,0.00
2013-6-24,87,77,70,74,69,66,86,77,60,30.19,30.07,18,0,19,0.02
2013-6-25,87,78,69,74,70,66,90,77,60,30.11,29.97,19,1,20,0.00
2013-6-26,90,75,70,74,69,65,90,81,52,30.00,29.89,19,0,19,0.10
2013-6-27,82,74,69,73,68,66,93,84,69,29.92,29.71,19,0,19,0.00
2013-6-28,89,80,72,74,68,65,84,69,49,29.75,29.54,12,0,12,0.00
2013-6-29,85,76,69,70,66,63,85,73,59,29.73,29.60,27,1,27,0.06
2013-6-30,84,75,69,74,69,65,90,84,66,29.86,29.71,27,1,27,0.35
2013-7-1,82,75,70,72,69,67,92,84,71,29.96,29.83,5,0,6,0.02
2013-7-2,75,72,70,71,69,68,95,89,80,30.16,29.95,7,0,7,1.90
2013-7-3,76,72,70,75,71,68,96,95,93,30.23,30.12,0,0,0,2.02
2013-7-4,82,74,70,77,72,69,97,93,79,30.26,30.17,1,0,1,0.76
2013-7-5,84,76,71,76,72,69,96,88,76,30.25,30.16,8,0,8,0.00
2013-7-6,86,77,71,75,71,69,93,83,65,30.23,30.11,10,0,10,0.02
2013-7-7,83,75,70,76,71,68,93,87,71,30.16,30.07,6,0,6,0.31
2013-7-8,82,74,68,73,70,66,94,86,71,30.18,30.08,3,0,5,0.02
2013-7-9,87,78,71,75,71,68,90,80,65,30.15,30.04,7,0,7,0.00
2013-7-10,87,76,72,78,72,70,94,87,74,30.08,29.95,6,0,7,0.94
2013-7-11,81,74,71,75,72,69,96,91,81,29.96,29.88,1,0,2,0.37
2013-7-12,74,70,68,70,67,65,94,90,81,30.07,29.90,5,0,5,0.00
2013-7-13,76,72,68,72,68,65,94,90,85,30.20,30.06,5,0,5,0.33
2013-7-14,82,76,71,75,72,69,96,88,75,30.33,30.20,2,0,2,0.10
2013-7-15,87,78,72,75,72,69,93,82,63,30.35,30.25,0,0,0,0.00
2013-7-16,90,78,71,75,71,68,90,80,57,30.30,30.19,5,0,5,0.08
2013-7-17,89,79,72,78,73,69,92,83,68,30.27,30.15,2,0,2,0.00
2013-7-18,90,80,73,79,74,70,89,80,64,30.18,30.05,4,0,4,0.00
2013-7-19,90,81,74,78,73,70,89,78,64,30.10,29.96,5,0,9,0.00
2013-7-20,90,81,74,77,72,70,87,77,58,29.99,29.88,6,0,6,0.00
2013-7-21,85,78,73,76,72,68,87,80,67,29.99,29.92,6,0,6,0.00
2013-7-22,86,78,74,74,72,70,90,84,65,29.96,29.81,6,0,6,0.31
2013-7-23,86,77,71,73,70,68,92,79,61,29.82,29.73,6,0,6,0.02
2013-7-24,86,78,73,72,68,66,85,72,56,29.91,29.74,7,0,7,0.00
2013-7-25,81,75,69,67,64,61,78,70,60,30.05,29.90,22,0,25,0.00
2013-7-26,82,73,66,70,65,60,84,76,65,30.12,30.01,27,2,27,0.00
2013-7-27,75,71,69,70,67,66,92,87,76,30.04,29.94,19,0,20,0.41
2013-7-28,81,74,68,71,68,66,92,83,67,30.00,29.91,5,0,5,0.00
2013-7-29,81,71,64,66,61,58,87,71,49,30.20,30.01,26,2,35,0.00
2013-7-30,82,71,61,65,61,56,84,72,55,30.27,30.15,17,0,22,0.00
2013-7-31,74,70,68,68,65,64,89,84,78,30.16,30.02,34,3,34,0.04
2013-8-1,83,73,67,71,67,64,92,83,63,30.01,29.86,18,0,18,0.06
2013-8-2,84,74,66,66,64,62,89,72,53,30.04,29.94,18,1,23,0.00
2013-8-3,85,74,67,70,66,61,85,75,59,30.02,29.93,25,2,25,0.00
2013-8-4,82,75,70,68,63,59,86,69,48,30.07,29.93,24,2,28,0.00
2013-8-5,78,71,65,66,62,59,83,73,64,30.12,30.01,25,2,29,0.00
2013-8-6,83,75,69,72,68,63,87,79,70,30.03,29.96,17,1,17,0.14
2013-8-7,78,74,71,73,70,68,93,89,83,30.07,30.02,8,0,8,0.18
2013-8-8,80,74,72,76,71,69,94,90,84,30.05,30.00,5,0,5,0.88
2013-8-9,82,76,72,78,73,70,96,90,80,30.02,29.95,1,0,1,0.18
2013-8-10,86,79,73,75,72,70,91,82,67,30.08,30.01,0,0,0,0.00
2013-8-11,86,78,74,75,72,70,92,83,66,30.12,30.01,0,0,0,0.53
2013-8-12,85,77,70,74,71,68,94,83,64,30.07,29.95,0,0,0,0.04
2013-8-13,79,74,71,73,70,65,92,87,79,29.96,29.81,0,0,0,0.16
2013-8-14,72,68,64,65,59,54,86,75,57,30.13,29.88,20,1,23,0.00
2013-8-15,76,66,58,60,56,52,83,72,56,30.20,30.09,0,0,0,0.00
2013-8-16,75,65,56,62,57,52,86,76,62,30.20,30.12,0,0,0,0.00
2013-8-17,70,64,59,62,59,55,90,83,70,30.25,30.18,0,0,0,0.33
2013-8-18,69,65,63,67,63,61,95,93,90,30.24,30.16,1,0,1,0.67
2013-8-19,74,69,65,71,66,63,95,93,89,30.21,30.08,0,0,0,0.08
2013-8-20,81,73,68,74,69,66,95,88,75,30.20,30.11,0,0,0,0.00
2013-8-21,79,74,69,75,70,66,92,89,83,30.22,30.10,0,0,0,0.25
2013-8-22,83,74,67,73,69,64,94,84,71,30.14,30.01,2,0,2,0.02
2013-8-23,83,74,68,72,68,64,91,83,68,30.14,29.96,0,0,0,0.00
2013-8-24,78,70,62,66,62,59,91,78,61,30.32,30.13,0,0,0,0.00
2013-8-25,79,69,61,64,60,56,88,74,54,30.41,30.27,0,0,0,0.00
2013-8-26,83,70,60,68,61,56,88,76,56,30.33,30.09,0,0,0,0.00
2013-8-27,84,76,66,72,68,62,90,78,66,30.09,29.96,0,0,0,0.00
2013-8-28,81,76,73,74,70,68,93,84,75,30.00,29.85,0,0,0,0.10
2013-8-29,85,78,73,75,72,69,93,82,71,30.04,29.86,0,0,0,0.14
2013-8-30,83,76,70,73,70,66,90,82,70,30.07,29.92,0,0,0,0.00
2013-8-31,86,75,70,74,70,66,91,84,65,29.94,29.84,1,0,1,0.27
2013-9-1,82,75,69,75,70,67,93,85,71,29.90,29.79,0,0,0,0.02
2013-9-2,85,77,69,73,70,66,91,79,62,29.90,29.79,0,0,1,0.00
2013-9-3,86,77,70,71,67,61,87,73,51,30.00,29.81,0,0,0,0.00
2013-9-4,81,71,62,66,61,56,86,72,56,30.11,30.00,0,0,0,0.00
2013-9-5,84,72,61,65,60,56,86,68,43,30.14,30.05,0,0,0,0.00
2013-9-6,77,69,64,63,60,57,83,72,58,30.22,30.11,0,0,0,0.00
2013-9-7,81,69,58,68,61,54,86,77,64,30.15,29.97,0,0,0,0.00
2013-9-8,84,73,64,70,65,59,85,76,61,30.01,29.91,0,0,0,0.00
2013-9-9,78,72,68,69,66,63,87,82,74,30.18,30.01,0,0,0,0.00
2013-9-10,87,75,67,75,69,64,90,82,66,30.22,30.13,0,0,0,0.00
2013-9-11,84,76,69,76,70,66,91,83,71,30.19,30.06,0,0,0,0.08
2013-9-12,86,77,71,74,70,65,89,78,61,30.06,29.83,0,0,0,0.00
2013-9-13,76,71,63,65,56,49,81,61,40,29.96,29.79,0,0,0,0.00
2013-9-14,72,63,54,54,51,47,80,66,49,30.15,29.95,0,0,0,0.00
2013-9-15,75,64,52,62,55,47,83,74,63,30.25,30.09,0,0,0,0.00
2013-9-16,76,67,60,64,58,54,87,75,60,30.24,30.10,0,0,0,0.00
2013-9-17,69,60,54,58,53,49,85,78,65,30.38,30.23,0,0,0,0.00
2013-9-18,68,60,52,58,53,48,85,79,70,30.33,30.18,0,0,0,0.00
2013-9-19,72,66,62,65,61,57,85,82,77,30.20,30.07,0,0,0,0.00
2013-9-20,69,66,63,67,63,61,94,91,85,30.09,29.96,0,0,0,0.82
2013-9-21,69,66,61,67,64,59,94,94,93,29.96,29.71,4,0,4,0.24
2013-9-22,70,62,55,60,57,53,94,84,66,29.95,29.78,1,0,1,0.02
2013-9-23,70,61,56,60,55,52,88,81,71,30.09,29.95,0,0,0,0.00
2013-9-24,73,64,58,64,58,53,87,81,70,30.12,29.94,0,0,0,0.00
2013-9-25,67,63,58,62,59,54,90,87,81,29.98,29.89,0,0,0,0.02
2013-9-26,73,66,62,62,60,56,92,81,62,30.08,29.92,0,0,0,0.00
2013-9-27,71,63,54,59,55,50,89,77,62,30.22,30.08,0,0,0,0.00
2013-9-28,67,63,58,58,56,52,85,79,70,30.28,30.20,0,0,0,0.00
2013-9-29,70,60,52,58,53,48,88,78,63,30.21,30.05,0,0,0,0.00
2013-9-30,74,64,55,60,56,51,87,77,61,30.11,29.99,0,0,0,0.00
2013-10-1,76,66,56,64,58,52,88,77,59,30.14,30.04,0,0,0,0.00
2013-10-2,79,67,56,66,58,52,88,76,57,30.15,30.05,0,0,0,0.00
2013-10-3,78,68,60,66,61,55,88,79,64,30.16,30.06,0,0,0,0.00
2013-10-4,81,70,60,68,63,56,89,78,61,30.15,30.05,0,0,0,0.00
2013-10-5,82,71,62,68,64,58,89,78,62,30.14,30.02,0,0,0,0.00
2013-10-6,81,70,62,68,63,58,88,78,62,30.05,29.90,0,0,0,0.00
2013-10-7,71,64,55,67,59,49,93,82,70,30.08,29.79,2,0,2,1.63
2013-10-8,66,57,50,52,49,46,87,75,59,30.27,30.08,0,0,0,0.00
2013-10-9,64,56,50,51,48,46,86,75,60,30.30,30.19,0,0,0,0.00
2013-10-10,65,58,52,61,54,46,91,85,71,30.19,29.99,0,0,0,0.20
2013-10-11,70,64,60,63,58,55,86,83,77,30.00,29.93,0,0,0,0.00
2013-10-12,66,64,61,63,60,57,91,87,82,30.13,29.99,0,0,0,0.06
2013-10-13,65,63,61,62,60,59,92,90,88,30.27,30.12,0,0,0,0.04
2013-10-14,65,61,59,61,59,56,94,92,87,30.29,30.19,7,0,7,0.28
2013-10-15,67,60,54,58,55,52,93,86,72,30.24,30.09,0,0,0,0.00
2013-10-16,68,61,54,62,56,51,91,86,78,30.10,29.94,0,0,0,0.00
2013-10-17,66,63,60,64,60,53,93,90,77,29.96,29.79,0,0,0,0.06
2013-10-18,64,57,51,53,48,44,82,72,59,30.06,29.92,0,0,0,0.04
2013-10-19,61,55,51,56,51,46,88,84,76,30.00,29.81,0,0,0,0.00
2013-10-20,60,52,44,49,41,38,79,68,52,30.12,29.94,0,0,0,0.00
2013-10-21,65,52,40,53,44,36,85,77,65,30.17,29.97,0,0,0,0.00
2013-10-22,64,57,51,52,49,46,88,76,61,29.99,29.81,0,0,0,0.00
2013-10-23,58,52,44,49,42,32,87,72,54,29.99,29.71,0,0,0,0.00
2013-10-24,50,45,39,35,33,32,74,65,56,30.20,29.99,0,0,0,0.00
2013-10-25,49,41,35,32,30,28,81,65,48,30.37,30.19,0,0,0,0.00
2013-10-26,56,43,31,36,30,24,80,62,38,30.36,30.02,0,0,0,0.00
2013-10-27,63,53,45,44,39,33,72,59,44,30.13,30.02,0,0,0,0.00
2013-10-28,60,51,42,52,44,36,83,77,70,30.27,30.12,0,0,0,0.00
2013-10-29,66,59,52,55,52,48,89,79,65,30.36,30.25,0,0,0,0.00
2013-10-30,69,60,55,60,54,50,89,82,73,30.29,30.14,0,0,0,0.06
2013-10-31,67,62,58,61,57,54,91,84,74,30.17,29.80,0,0,0,0.00
2013-11-1,74,67,59,62,58,48,84,72,48,29.80,29.62,0,0,0,0.02
2013-11-2,65,57,51,48,42,34,77,59,39,29.96,29.71,0,0,0,0.00
2013-11-3,57,51,43,38,36,33,69,56,45,30.40,29.96,0,0,0,0.00
2013-11-4,50,43,35,35,32,28,79,65,53,30.58,30.40,0,0,0,0.00
2013-11-5,52,46,39,42,35,29,72,66,60,30.61,30.46,0,0,0,0.00
2013-11-6,66,55,49,53,47,41,83,74,61,30.46,30.10,0,0,0,0.00
2013-11-7,59,51,44,53,41,29,89,71,52,30.16,29.97,0,0,0,0.00
2013-11-8,50,44,36,30,28,26,66,53,41,30.34,30.15,0,0,0,0.00
2013-11-9,56,42,32,36,29,24,76,62,44,30.36,30.12,0,0,0,0.00
2013-11-10,63,53,43,38,32,26,61,46,26,30.28,30.06,0,0,0,0.00
2013-11-11,60,47,36,34,29,25,67,51,36,30.34,30.08,0,0,0,0.00
2013-11-12,51,43,32,37,26,16,59,50,44,30.46,30.01,0,0,0,0.00
2013-11-13,44,36,29,20,17,15,58,47,34,30.54,30.43,0,0,0,0.00
2013-11-14,58,41,27,24,20,16,67,47,25,30.44,30.27,0,0,0,0.00
2013-11-15,60,45,32,47,32,21,84,61,37,30.32,30.18,1,0,1,0.43
2013-11-16,53,51,48,50,48,44,91,88,84,30.29,30.22,2,0,2,0.02
2013-11-17,60,56,53,57,54,50,93,91,88,30.23,29.81,0,0,0,0.12
2013-11-18,63,56,49,57,41,28,94,61,36,30.01,29.78,0,0,0,0.04
2013-11-19,50,45,40,30,28,26,63,53,45,30.33,30.00,0,0,0,0.00
2013-11-20,48,41,36,31,29,28,74,62,50,30.50,30.33,0,0,0,0.00
2013-11-21,51,46,41,41,36,29,74,70,62,30.53,30.40,0,0,0,0.00
2013-11-22,64,55,47,56,48,40,82,77,72,30.41,30.08,0,0,0,0.00
2013-11-23,59,48,35,52,33,17,76,57,32,30.25,30.09,0,0,0,0.00
2013-11-24,35,28,24,18,8,5,52,42,33,30.54,30.25,0,0,0,0.00
2013-11-25,37,30,24,18,14,8,60,50,44,30.54,30.35,0,0,0,0.00
2013-11-26,40,36,34,38,30,18,92,79,49,30.35,29.64,0,0,0,1.96
2013-11-27,43,35,27,41,28,15,92,75,59,30.16,29.58,0,0,0,0.02
2013-11-28,39,31,26,24,19,15,72,61,51,30.46,30.16,0,0,0,0.00
2013-11-29,44,33,25,29,24,19,78,68,54,30.67,30.45,0,0,0,0.00
2013-11-30,39,33,26,28,24,19,76,70,62,30.68,30.38,0,0,0,0.00
2013-12-1,53,36,25,34,26,19,81,67,44,30.37,30.03,0,0,0,0.00
2013-12-2,50,41,33,40,33,26,80,73,65,30.03,29.84,0,0,0,0.00
2013-12-3,56,46,37,45,39,32,84,76,65,29.99,29.87,0,0,0,0.00
2013-12-4,59,50,42,52,45,37,87,82,77,30.09,29.96,0,0,0,0.00
2013-12-5,63,55,48,59,52,44,93,88,84,30.10,29.97,0,0,0,0.02
2013-12-6,68,61,52,66,59,49,96,92,84,30.07,29.87,28,0,38,0.81
2013-12-7,52,43,40,49,38,33,92,81,74,30.48,30.06,0,0,0,0.06
2013-12-8,40,34,32,35,30,27,89,84,78,30.49,30.27,0,0,0,0.08
2013-12-9,48,40,33,46,37,30,94,90,84,30.27,30.04,3,0,3,0.10
2013-12-10,42,38,32,39,32,23,92,80,66,30.28,29.97,0,0,0,0.35
2013-12-11,46,36,30,27,23,20,70,60,45,30.42,30.25,0,0,0,0.00
2013-12-12,38,33,30,23,16,12,60,49,38,30.42,30.28,0,0,0,0.00
2013-12-13,46,37,30,26,20,13,64,49,39,30.35,30.23,0,0,0,0.00
2013-12-14,38,37,36,33,32,26,89,82,64,30.30,29.76,0,0,0,0.35
2013-12-15,43,39,36,38,32,27,91,76,64,30.04,29.71,0,0,0,0.00
2013-12-16,47,39,34,36,30,26,77,71,62,30.15,30.02,0,0,0,0.00
2013-12-17,54,41,31,39,32,24,86,71,53,30.10,29.90,0,0,0,0.00
2013-12-18,43,37,33,24,22,20,61,55,42,30.26,30.01,0,0,0,0.00
2013-12-19,62,44,30,33,27,21,74,53,31,30.25,30.15,0,0,0,0.00
2013-12-20,58,47,39,39,34,29,71,61,48,30.17,30.07,0,0,0,0.00
2013-12-21,68,54,41,59,47,35,83,77,69,30.09,29.94,0,0,0,0.00
2013-12-22,66,61,57,62,58,55,93,88,77,30.07,29.91,27,2,27,0.39
2013-12-23,58,51,37,56,46,29,95,83,68,30.24,29.96,0,0,0,0.51
2013-12-24,38,33,26,29,22,12,77,63,49,30.48,30.21,0,0,0,0.00
2013-12-25,36,28,21,20,16,12,72,62,49,30.54,30.35,0,0,0,0.00
2013-12-26,46,34,25,29,22,17,76,61,44,30.40,30.25,1,0,1,0.00
2013-12-27,50,36,27,29,23,20,76,62,40,30.47,30.35,0,0,0,0.00
2013-12-28,53,38,26,35,27,20,78,65,44,30.40,30.17,0,0,0,0.06
2013-12-29,50,44,41,46,40,35,92,84,77,30.16,29.69,0,0,0,0.88
2013-12-30,46,42,38,39,34,29,78,71,65,30.16,29.91,0,0,0,0.00
2013-12-31,44,38,34,30,24,20,73,58,39,30.35,30.12,0,0,0,0.00
2014-1-1,49,37,28,32,25,20,74,62,46,30.38,30.11,0,0,0,0.00
2014-1-2,40,35,31,35,28,22,87,77,65,30.11,29.63,0,0,0,0.12